Time;durP1;ratioP1;P1;durP2;ratioP2;P2;SDS_P1;SDS_P2;PMS_P1;PMS_P2;Temp;Humidity;BMP_temperature;BMP_pressure;BME280_temperature;BME280_humidity;BME280_pressure;Samples;Min_cycle;Max_cycle;Signal;HPM_P1;HPM_P2
2022/05/22 00:00:45;;;;;;;6.15;1.25;;;;;;;25.15;34.46;101446.34;5068902;28;20029;-45
2022/05/22 00:03:13;;;;;;;5.15;1.13;;;;;;;24.96;34.56;101440.78;5035252;28;20033;-44
2022/05/22 00:05:42;;;;;;;3.55;1.42;;;;;;;25.10;34.62;101440.13;5053249;28;20540;-47
2022/05/22 00:08:11;;;;;;;3.75;1.30;;;;;;;25.06;34.68;101449.69;5068580;28;20029;-46
2022/05/22 00:10:39;;;;;;;4.78;1.13;;;;;;;25.01;34.45;101436.47;5052996;28;20091;-45
2022/05/22 00:13:08;;;;;;;2.97;1.10;;;;;;;25.06;34.59;101435.66;5067886;28;20028;-48
2022/05/22 00:16:36;;;;;;;3.95;1.27;;;;;;;25.17;34.43;101432.34;5051405;28;20052;-47
2022/05/22 00:18:24;;;;;;;4.10;1.00;;;;;;;25.27;34.14;101428.13;5052677;28;20106;-45
2022/05/22 00:20:52;;;;;;;5.43;1.35;;;;;;;25.18;34.50;101417.47;5051996;28;20494;-45
2022/05/22 00:23:20;;;;;;;3.20;1.00;;;;;;;25.29;34.03;101410.66;5055277;28;20112;-46
2022/05/22 00:25:49;;;;;;;7.30;1.90;;;;;;;25.19;34.39;101403.47;5072047;28;20041;-44
2022/05/22 00:28:18;;;;;;;3.10;1.20;;;;;;;25.09;34.15;101402.47;5056604;28;20033;-45
2022/05/22 00:30:46;;;;;;;4.50;1.52;;;;;;;25.07;34.41;101398.06;5055318;28;20459;-45
2022/05/22 00:33:15;;;;;;;4.18;1.30;;;;;;;25.06;34.42;101401.53;5038907;28;20037;-45
2022/05/22 00:35:44;;;;;;;2.78;1.02;;;;;;;25.13;33.91;101395.53;5056107;28;20024;-45
2022/05/22 00:38:13;;;;;;;4.28;1.33;;;;;;;24.94;34.27;101396.97;5056333;28;20470;-45
2022/05/22 00:40:41;;;;;;;6.60;1.33;;;;;;;24.91;34.32;101387.31;5055318;28;20033;-48
2022/05/22 00:43:25;;;;;;;4.20;1.25;;;;;;;24.88;33.97;101387.28;5056192;28;20036;-45
2022/05/22 00:45:54;;;;;;;8.27;1.40;;;;;;;24.78;34.23;101380.13;5056585;28;20471;-46
2022/05/22 00:48:22;;;;;;;4.50;0.95;;;;;;;24.72;34.46;101376.53;5071789;28;20056;-46
2022/05/22 00:50:54;;;;;;;4.13;1.15;;;;;;;24.75;34.11;101377.44;5056323;28;20394;-45
2022/05/22 00:53:22;;;;;;;5.57;1.08;;;;;;;24.82;33.82;101376.69;5056193;28;20029;-45
2022/05/22 00:55:51;;;;;;;4.18;1.10;;;;;;;24.77;34.11;101378.34;5056395;28;20032;-44
2022/05/22 00:58:23;;;;;;;3.90;1.02;;;;;;;24.80;34.00;101379.28;5054907;28;20120;-44
2022/05/22 01:00:52;;;;;;;3.75;1.08;;;;;;;24.69;34.02;101384.31;5055134;28;20029;-44
2022/05/22 01:03:27;;;;;;;5.88;1.13;;;;;;;24.72;33.80;101365.16;5055342;28;20089;-46
2022/05/22 01:06:09;;;;;;;5.45;1.08;;;;;;;24.59;34.01;101350.94;5054959;28;20029;-48
2022/05/22 01:08:39;;;;;;;3.10;1.00;;;;;;;24.51;34.34;101353.44;5054986;28;20044;-44
2022/05/22 01:11:12;;;;;;;5.50;1.48;;;;;;;24.53;34.10;101353.44;5054881;28;20017;-45
2022/05/22 01:13:45;;;;;;;4.18;1.40;;;;;;;24.53;34.35;101351.72;5038316;28;20036;-45
2022/05/22 01:16:14;;;;;;;6.13;1.20;;;;;;;24.49;34.48;101356.88;5054556;28;20048;-48
2022/05/22 01:18:54;;;;;;;4.32;1.10;;;;;;;24.39;34.34;101359.34;5055804;28;20078;-48
2022/05/22 01:21:27;;;;;;;4.07;0.93;;;;;;;24.36;34.60;101350.53;5054458;28;20021;-44
2022/05/22 01:23:55;;;;;;;7.03;1.05;;;;;;;24.38;34.38;101354.06;5055474;28;20029;-45
2022/05/22 01:26:25;;;;;;;5.28;1.30;;;;;;;24.39;34.13;101343.59;5055415;28;20060;-46
2022/05/22 01:28:54;;;;;;;5.90;1.30;;;;;;;24.38;34.54;101336.59;5055493;28;20067;-45
2022/05/22 01:31:23;;;;;;;6.03;1.35;;;;;;;24.33;34.40;101325.13;5055885;28;20060;-46
2022/05/22 01:33:51;;;;;;;5.47;1.05;;;;;;;24.40;34.20;101334.88;5069639;28;20056;-44
2022/05/22 01:36:20;;;;;;;3.17;0.82;;;;;;;24.43;34.10;101340.19;5055561;28;20028;-45
2022/05/22 01:38:48;;;;;;;4.25;1.13;;;;;;;24.47;34.33;101343.72;5055307;28;20107;-47
2022/05/22 01:41:17;;;;;;;3.45;1.15;;;;;;;24.32;34.52;101332.97;5055579;28;20036;-47
2022/05/22 01:43:45;;;;;;;4.63;1.27;;;;;;;24.37;34.42;101333.94;5055346;28;20053;-44
2022/05/22 01:46:14;;;;;;;4.20;1.00;;;;;;;24.40;34.48;101320.91;5054301;28;20260;-44
2022/05/22 01:48:43;;;;;;;5.80;1.50;;;;;;;24.41;34.24;101331.41;5054008;28;20506;-44
2022/05/22 01:51:11;;;;;;;3.55;0.95;;;;;;;24.35;34.28;101327.78;5055602;28;20037;-44
2022/05/22 01:53:40;;;;;;;3.28;1.20;;;;;;;24.42;34.35;101321.78;5055137;28;20060;-44
2022/05/22 01:56:08;;;;;;;4.07;1.25;;;;;;;24.49;34.30;101304.44;5055001;28;20028;-45
2022/05/22 01:58:37;;;;;;;6.35;1.23;;;;;;;24.54;34.17;101308.91;5055210;28;20021;-44
2022/05/22 02:01:05;;;;;;;4.78;1.30;;;;;;;24.50;34.54;101306.16;5055091;28;20029;-44
2022/05/22 02:03:34;;;;;;;3.50;1.23;;;;;;;24.43;34.59;101292.97;5053469;28;20025;-46
2022/05/22 02:06:02;;;;;;;3.78;1.05;;;;;;;24.53;34.39;101309.75;5053552;28;20360;-45
2022/05/22 02:08:31;;;;;;;5.28;1.20;;;;;;;24.36;34.16;101269.25;5055023;28;20036;-44
2022/05/22 02:11:02;;;;;;;5.63;1.10;;;;;;;24.56;33.84;101287.91;5055158;28;20059;-44
2022/05/22 02:13:34;;;;;;;5.07;1.10;;;;;;;24.39;34.44;101291.16;5055168;28;20029;-44
2022/05/22 02:16:02;;;;;;;3.78;1.00;;;;;;;24.26;34.74;101282.19;5054442;28;20029;-46
2022/05/22 02:18:31;;;;;;;4.45;1.40;;;;;;;24.12;35.14;101281.97;5054323;28;20048;-46
2022/05/22 02:20:59;;;;;;;4.63;1.27;;;;;;;24.03;35.44;101265.22;5054814;28;20021;-44
2022/05/22 02:23:27;;;;;;;3.30;1.30;;;;;;;24.05;35.03;101268.75;5054694;28;20040;-44
2022/05/22 02:25:57;;;;;;;3.40;1.15;;;;;;;24.05;34.92;101259.13;5069623;28;20128;-45
2022/05/22 02:28:26;;;;;;;4.03;0.98;;;;;;;24.08;35.00;101246.09;5054899;28;20036;-44
2022/05/22 02:30:57;;;;;;;5.43;1.48;;;;;;;24.06;35.27;101262.66;5053267;28;20108;-45
2022/05/22 02:33:26;;;;;;;4.40;1.35;;;;;;;24.09;34.77;101274.06;5053968;28;20039;-47
2022/05/22 02:35:55;;;;;;;3.45;1.08;;;;;;;24.09;34.88;101281.91;5052750;28;20028;-44
2022/05/22 02:38:25;;;;;;;5.30;1.52;;;;;;;23.98;34.88;101273.00;5054546;28;20033;-45
2022/05/22 02:40:53;;;;;;;4.95;1.00;;;;;;;24.00;35.09;101263.41;5054275;28;20035;-44
2022/05/22 02:43:21;;;;;;;6.38;1.60;;;;;;;23.95;34.99;101265.03;5069135;28;20025;-46
2022/05/22 02:45:50;;;;;;;4.85;1.33;;;;;;;23.92;35.00;101250.13;5053986;28;20021;-48
2022/05/22 02:48:18;;;;;;;3.75;1.17;;;;;;;23.96;34.85;101244.13;5054665;28;20557;-44
2022/05/22 02:50:46;;;;;;;4.35;1.33;;;;;;;23.91;35.31;101271.06;5054115;28;20485;-44
2022/05/22 02:53:15;;;;;;;8.15;1.60;;;;;;;23.82;35.58;101259.59;5053694;28;20155;-46
2022/05/22 02:55:44;;;;;;;4.97;1.33;;;;;;;23.76;35.49;101237.59;5053833;28;20032;-48
2022/05/22 02:58:13;;;;;;;3.30;1.10;;;;;;;23.75;35.64;101257.69;5053735;28;20029;-48
2022/05/22 03:00:41;;;;;;;3.72;1.33;;;;;;;23.81;35.20;101278.78;5054225;28;20036;-49
2022/05/22 03:03:10;;;;;;;4.60;1.02;;;;;;;23.80;35.53;101257.78;5053816;28;20432;-45
2022/05/22 03:08:26;;;;;;;5.75;1.25;;;;;;;23.81;35.42;101278.78;5053222;28;20041;-47
2022/05/22 03:10:55;;;;;;;6.45;1.63;;;;;;;23.73;35.85;101272.50;5053540;28;20025;-46
2022/05/22 03:13:22;;;;;;;4.60;1.20;;;;;;;23.86;35.46;101275.34;5053761;28;20486;-44
2022/05/22 03:15:50;;;;;;;5.18;1.10;;;;;;;23.71;35.50;101291.66;5053413;28;20086;-44
2022/05/22 03:18:19;;;;;;;5.00;1.17;;;;;;;23.66;35.47;101286.34;5053467;28;20112;-45
2022/05/22 03:20:48;;;;;;;5.82;1.63;;;;;;;23.75;35.29;101278.66;5054023;28;20028;-45
2022/05/22 03:23:16;;;;;;;4.68;1.50;;;;;;;23.75;35.37;101296.09;5053439;28;20040;-45
2022/05/22 03:25:47;;;;;;;4.82;1.23;;;;;;;23.86;35.08;101291.06;5053197;28;20516;-50
2022/05/22 03:28:16;;;;;;;3.33;1.50;;;;;;;23.85;35.19;101291.91;5053443;28;20183;-49
2022/05/22 03:30:45;;;;;;;5.13;1.20;;;;;;;23.71;35.56;101279.44;5053406;28;20025;-45
2022/05/22 03:33:14;;;;;;;3.92;1.08;;;;;;;23.70;35.46;101264.56;5053127;28;20044;-45
2022/05/22 03:35:42;;;;;;;4.45;1.13;;;;;;;23.75;35.45;101283.91;5053259;28;20024;-47
2022/05/22 03:38:11;;;;;;;4.35;1.65;;;;;;;23.86;35.46;101291.97;5053470;28;20031;-49
2022/05/22 03:40:45;;;;;;;4.78;1.25;;;;;;;23.86;35.34;101272.72;5053211;28;20127;-46
2022/05/22 03:43:16;;;;;;;3.25;1.13;;;;;;;24.00;35.19;101278.25;5052266;28;20032;-48
2022/05/22 03:45:45;;;;;;;3.45;0.95;;;;;;;24.00;35.23;101268.63;5053143;28;20072;-46
2022/05/22 03:48:13;;;;;;;5.05;1.10;;;;;;;23.81;35.22;101241.19;5053305;28;20482;-47
2022/05/22 03:50:42;;;;;;;5.13;1.45;;;;;;;23.85;35.45;101248.28;5053074;28;20039;-44
2022/05/22 03:53:10;;;;;;;4.65;1.27;;;;;;;23.87;35.16;101241.31;5052802;28;20032;-47
2022/05/22 03:55:39;;;;;;;4.53;1.70;;;;;;;23.79;35.20;101249.06;5053086;28;20032;-48
2022/05/22 03:58:08;;;;;;;5.18;1.30;;;;;;;23.77;35.34;101239.38;5055422;28;20425;-47
2022/05/22 04:00:37;;;;;;;4.38;1.30;;;;;;;23.76;35.82;101221.88;5057352;28;20025;-47
2022/05/22 04:03:06;;;;;;;4.82;1.27;;;;;;;23.75;35.54;101218.41;5057086;28;20025;-46
2022/05/22 04:05:34;;;;;;;5.10;1.50;;;;;;;23.78;35.49;101228.03;5057084;28;20025;-47
2022/05/22 04:08:03;;;;;;;2.88;1.08;;;;;;;23.75;35.50;101228.88;5057005;28;20109;-45
2022/05/22 04:10:31;;;;;;;4.22;1.10;;;;;;;23.81;35.75;101235.97;5057055;28;20127;-46
2022/05/22 04:13:00;;;;;;;4.57;1.30;;;;;;;23.74;35.64;101229.72;5056995;28;20033;-47
2022/05/22 04:15:29;;;;;;;5.70;1.42;;;;;;;23.76;35.33;101230.66;5057079;28;20025;-44
2022/05/22 04:17:57;;;;;;;4.50;1.20;;;;;;;23.76;35.79;101228.03;5057057;28;20024;-48
2022/05/22 04:20:26;;;;;;;3.80;1.08;;;;;;;23.72;35.55;101228.81;5056879;28;20386;-46
2022/05/22 04:25:41;;;;;;;7.68;1.63;;;;;;;23.50;35.78;101202.22;5052589;28;20149;-46
2022/05/22 04:28:10;;;;;;;3.80;1.17;;;;;;;23.48;35.56;101197.81;5056806;28;20025;-47
2022/05/22 04:30:38;;;;;;;6.82;1.55;;;;;;;23.50;35.87;101202.22;5056934;28;20379;-46
2022/05/22 04:33:07;;;;;;;5.68;1.60;;;;;;;23.50;36.07;101198.75;5056608;28;20374;-46
2022/05/22 04:35:37;;;;;;;6.07;1.10;;;;;;;23.64;35.74;101201.63;5056558;28;20459;-45
2022/05/22 04:38:05;;;;;;;2.58;1.02;;;;;;;23.69;35.52;101191.22;5056552;28;20108;-47
2022/05/22 04:40:34;;;;;;;6.47;1.52;;;;;;;23.57;35.60;101190.16;5055644;28;20028;-47
2022/05/22 04:43:03;;;;;;;4.60;1.63;;;;;;;23.49;35.74;101186.50;5056212;28;20028;-50
2022/05/22 04:45:31;;;;;;;5.03;1.40;;;;;;;23.44;35.81;101190.75;5056405;28;20025;-45
2022/05/22 04:48:00;;;;;;;5.85;1.88;;;;;;;23.44;35.77;101183.81;5056297;28;20033;-45
2022/05/22 04:50:28;;;;;;;9.20;1.85;;;;;;;23.46;35.69;101179.47;5056369;28;20064;-47
2022/05/22 04:52:56;;;;;;;7.13;1.63;;;;;;;23.45;35.87;101184.66;5054806;28;20032;-48
2022/05/22 04:55:25;;;;;;;8.98;1.60;;;;;;;23.39;35.57;101184.56;5056161;28;20495;-48
2022/05/22 04:57:53;;;;;;;4.95;1.30;;;;;;;23.32;36.06;101187.06;5055569;28;20029;-47
2022/05/22 05:00:22;;;;;;;4.50;1.38;;;;;;;23.36;36.05;101183.66;5054396;28;20033;-47
2022/05/22 05:02:51;;;;;;;9.75;1.45;;;;;;;23.39;35.97;101176.72;5056035;28;20024;-45
2022/05/22 05:05:20;;;;;;;3.00;1.10;;;;;;;23.26;36.14;101176.47;5056193;28;20049;-44
2022/05/22 05:07:48;;;;;;;2.90;0.95;;;;;;;23.39;35.70;101188.06;5056019;28;20021;-45
2022/05/22 05:10:16;;;;;;;4.47;1.35;;;;;;;23.42;35.85;101180.25;5056055;28;20039;-49
2022/05/22 05:12:45;;;;;;;6.13;1.80;;;;;;;23.47;36.04;101175.09;5055848;28;20028;-47
2022/05/22 05:15:16;;;;;;;5.63;1.27;;;;;;;23.37;36.01;101174.06;5055595;28;20040;-45
2022/05/22 05:17:45;;;;;;;4.43;1.35;;;;;;;23.41;35.71;101175.88;5056093;28;20143;-47
2022/05/22 05:20:16;;;;;;;6.07;1.55;;;;;;;23.33;35.88;101164.41;5055587;28;20025;-45
2022/05/22 05:22:45;;;;;;;4.97;1.60;;;;;;;23.50;35.53;101157.72;5055854;28;20031;-51
2022/05/22 05:25:13;;;;;;;6.68;1.60;;;;;;;23.53;35.83;101156.91;5055405;28;20406;-47
2022/05/22 05:27:41;;;;;;;4.03;1.20;;;;;;;23.47;35.99;101141.97;5055754;28;20021;-48
2022/05/22 05:30:10;;;;;;;5.32;1.40;;;;;;;23.35;36.38;101133.88;5055875;28;20036;-48
2022/05/22 05:32:39;;;;;;;7.85;1.70;;;;;;;23.35;36.37;101140.00;5055532;28;20382;-46
2022/05/22 05:35:11;;;;;;;4.65;1.58;;;;;;;23.32;36.29;101139.94;5054262;28;20025;-46
2022/05/22 05:37:40;;;;;;;4.80;1.40;;;;;;;23.31;36.50;101125.09;5055581;28;20045;-46
2022/05/22 05:40:09;;;;;;;6.57;1.70;;;;;;;23.46;36.26;101123.59;5055460;28;20071;-44
2022/05/22 05:42:38;;;;;;;4.47;1.50;;;;;;;23.38;36.25;101117.34;5055439;28;20048;-45
2022/05/22 05:45:08;;;;;;;5.15;1.30;;;;;;;23.44;36.70;101110.50;5055158;28;20075;-45
2022/05/22 05:47:37;;;;;;;5.90;1.88;;;;;;;23.42;36.70;101106.97;5055376;28;20017;-44
2022/05/22 05:50:05;;;;;;;4.05;1.33;;;;;;;23.39;36.57;101088.56;5055063;28;20032;-48
2022/05/22 05:52:34;;;;;;;8.10;1.58;;;;;;;23.36;36.65;101081.56;5055003;28;20609;-45
2022/05/22 05:55:03;;;;;;;5.53;1.75;;;;;;;23.37;36.88;101082.44;5054671;28;20024;-46
2022/05/22 05:57:32;;;;;;;4.13;1.10;;;;;;;23.48;36.73;101082.63;5053876;28;20424;-48
2022/05/22 06:00:00;;;;;;;3.30;1.40;;;;;;;23.48;36.58;101080.91;5055054;28;20017;-46
2022/05/22 06:02:28;;;;;;;5.93;1.92;;;;;;;23.62;36.49;101077.63;5055125;28;20029;-46
2022/05/22 06:04:57;;;;;;;6.85;1.40;;;;;;;23.62;36.53;101060.16;5054742;28;20035;-47
2022/05/22 06:07:25;;;;;;;4.32;1.55;;;;;;;23.60;36.56;101055.75;5055115;28;20020;-47
2022/05/22 06:09:54;;;;;;;3.88;1.25;;;;;;;23.49;37.27;101060.81;5054464;28;20029;-47
2022/05/22 06:12:23;;;;;;;5.55;1.48;;;;;;;23.51;36.85;101052.13;5054786;28;20385;-47
2022/05/22 06:14:51;;;;;;;7.95;1.58;;;;;;;23.51;37.29;101048.63;5054621;28;20503;-49
2022/05/22 06:17:20;;;;;;;6.07;1.63;;;;;;;23.55;36.74;101044.31;5054445;28;20053;-46
2022/05/22 06:20:07;;;;;;;4.75;1.17;;;;;;;23.60;37.08;101045.28;5053993;28;20035;-45
2022/05/22 06:22:36;;;;;;;3.88;1.30;;;;;;;23.65;37.20;101041.00;5053613;28;20355;-47
2022/05/22 06:25:07;;;;;;;4.03;1.42;;;;;;;23.70;37.05;101039.31;5054056;28;20490;-49
2022/05/22 06:27:36;;;;;;;6.35;1.50;;;;;;;23.71;36.94;101033.22;5054556;28;20032;-48
2022/05/22 06:30:05;;;;;;;5.43;1.48;;;;;;;23.79;36.84;101034.25;5054065;28;20098;-44
2022/05/22 06:32:34;;;;;;;5.35;1.35;;;;;;;23.69;36.74;101024.47;5054067;28;20025;-50
2022/05/22 06:35:03;;;;;;;7.03;1.80;;;;;;;23.69;37.20;101020.97;5054478;28;20478;-45
2022/05/22 06:37:31;;;;;;;6.10;1.70;;;;;;;23.76;37.12;101018.47;5054338;28;20036;-49
2022/05/22 06:40:00;;;;;;;6.60;1.38;;;;;;;23.68;37.12;101014.84;5054436;28;20025;-46
2022/05/22 06:42:30;;;;;;;5.20;1.65;;;;;;;23.94;36.74;101014.34;5054114;28;20030;-48
2022/05/22 06:45:01;;;;;;;6.22;1.20;;;;;;;23.89;37.17;101006.44;5053871;28;20178;-48
2022/05/22 06:47:31;;;;;;;5.38;1.52;;;;;;;23.84;37.54;101005.47;5052949;28;20028;-47
2022/05/22 06:50:01;;;;;;;3.65;1.30;;;;;;;23.79;37.17;100991.44;5053747;28;20479;-45
2022/05/22 06:52:29;;;;;;;8.35;1.73;;;;;;;23.76;37.30;100987.03;5054063;28;20047;-45
2022/05/22 06:54:58;;;;;;;4.75;1.60;;;;;;;23.92;36.69;100992.50;5053665;28;20025;-50
2022/05/22 06:57:26;;;;;;;3.47;1.00;;;;;;;24.04;36.66;100984.81;5053986;28;20032;-44
2022/05/22 06:59:57;;;;;;;4.93;1.45;;;;;;;24.00;37.03;100980.38;5054037;28;20032;-45
2022/05/22 07:02:27;;;;;;;7.22;1.67;;;;;;;23.82;37.52;100974.03;5053920;28;20039;-45
2022/05/22 07:05:00;;;;;;;7.50;1.30;;;;;;;23.95;37.08;100979.44;5053399;28;20398;-45
2022/05/22 07:07:29;;;;;;;2.97;1.02;;;;;;;23.86;37.20;100955.72;5052448;28;20082;-46
2022/05/22 07:09:57;;;;;;;7.22;1.58;;;;;;;24.01;37.38;100970.81;5053824;28;20021;-48
2022/05/22 07:12:26;;;;;;;4.45;1.17;;;;;;;23.96;37.52;100974.25;5053518;28;20029;-45
2022/05/22 07:14:56;;;;;;;7.25;1.35;;;;;;;24.11;37.23;100952.59;5053567;28;20029;-45
2022/05/22 07:17:25;;;;;;;6.65;1.50;;;;;;;24.26;36.76;100956.25;5053060;28;20028;-45
2022/05/22 07:19:55;;;;;;;3.70;1.10;;;;;;;24.11;37.47;100949.06;5053345;28;20086;-45
2022/05/22 07:22:23;;;;;;;4.15;1.20;;;;;;;24.04;37.40;100952.50;5053413;28;20025;-44
2022/05/22 07:24:52;;;;;;;7.40;1.63;;;;;;;24.03;37.88;100962.09;5053007;28;20033;-44
2022/05/22 07:27:21;;;;;;;4.32;1.33;;;;;;;24.01;37.98;100971.66;5053343;28;20110;-46
2022/05/22 07:29:49;;;;;;;5.63;1.52;;;;;;;23.93;38.23;100965.44;5053374;28;20029;-45
2022/05/22 07:32:17;;;;;;;3.47;1.25;;;;;;;23.96;37.59;100962.84;5052733;28;20029;-46
2022/05/22 07:34:48;;;;;;;8.00;1.50;;;;;;;24.02;38.04;100967.31;5053356;28;20493;-47
2022/05/22 07:37:16;;;;;;;6.75;1.52;;;;;;;24.02;37.75;100954.22;5053104;28;20390;-50
2022/05/22 07:39:44;;;;;;;4.53;1.38;;;;;;;24.21;37.12;100956.22;5053093;28;20054;-51
2022/05/22 07:42:13;;;;;;;4.35;1.50;;;;;;;24.33;37.53;100954.59;5052081;28;20120;-46
2022/05/22 07:44:41;;;;;;;5.78;1.83;;;;;;;24.22;37.97;100951.84;5052936;28;20106;-48
2022/05/22 07:47:10;;;;;;;4.00;1.20;;;;;;;24.26;37.92;100941.41;5051907;28;20033;-50
2022/05/22 07:50:21;;;;;;;4.05;1.40;;;;;;;24.16;38.58;100938.69;5053315;28;20021;-45
2022/05/22 07:52:25;;;;;;;3.03;1.02;;;;;;;24.31;37.68;100956.31;5052865;28;20171;-45
2022/05/22 07:54:54;;;;;;;4.07;1.73;;;;;;;24.29;37.79;100948.44;5053309;28;20032;-46
2022/05/22 07:57:22;;;;;;;5.82;1.55;;;;;;;24.23;38.18;100940.50;5052982;28;20112;-44
2022/05/22 07:59:49;;;;;;;6.75;1.20;;;;;;;24.20;38.73;100929.97;5051480;28;20033;-45
2022/05/22 08:02:18;;;;;;;4.28;1.52;;;;;;;24.29;38.35;100916.97;5051856;28;20040;-44
2022/05/22 08:04:46;;;;;;;3.92;1.45;;;;;;;24.33;38.52;100926.63;5068459;28;20463;-44
2022/05/22 08:07:15;;;;;;;3.63;1.23;;;;;;;24.38;37.86;100926.69;5068426;28;20029;-45
2022/05/22 08:09:43;;;;;;;3.17;1.02;;;;;;;24.13;38.29;100913.28;5051827;28;20028;-44
2022/05/22 08:12:12;;;;;;;4.53;1.38;;;;;;;24.27;38.46;100929.19;5051448;28;20021;-45
2022/05/22 08:14:41;;;;;;;4.13;1.33;;;;;;;24.25;39.17;100930.91;5052862;28;20479;-44
2022/05/22 08:17:09;;;;;;;4.45;1.30;;;;;;;24.14;39.20;100932.53;5051658;28;20022;-44
2022/05/22 08:19:38;;;;;;;4.25;1.10;;;;;;;24.06;39.80;100928.06;5052881;28;20025;-47
2022/05/22 08:22:06;;;;;;;6.45;1.92;;;;;;;24.14;39.41;100930.78;5051134;28;20035;-45
2022/05/22 08:24:35;;;;;;;8.48;1.35;;;;;;;24.11;39.87;100928.13;5052327;28;20036;-44
2022/05/22 08:27:03;;;;;;;4.38;1.55;;;;;;;24.15;40.06;100931.69;5052742;28;20053;-46
2022/05/22 08:29:32;;;;;;;2.67;0.90;;;;;;;24.09;40.40;100945.56;5053022;28;20450;-45
2022/05/22 08:32:00;;;;;;;4.07;1.25;;;;;;;24.14;40.18;100929.91;5052410;28;20025;-45
2022/05/22 08:34:29;;;;;;;4.25;1.73;;;;;;;24.19;40.33;100934.34;5052910;28;20063;-46
2022/05/22 08:36:57;;;;;;;3.40;1.17;;;;;;;24.08;40.48;100933.31;5052793;28;20049;-47
2022/05/22 08:39:25;;;;;;;5.40;1.25;;;;;;;24.14;40.42;100940.41;5053547;28;20482;-46
2022/05/22 08:41:57;;;;;;;6.45;1.63;;;;;;;24.14;40.72;100943.88;5052754;28;20032;-45
2022/05/22 08:44:31;;;;;;;5.45;1.20;;;;;;;24.09;40.93;100937.69;5037621;28;20037;-46
2022/05/22 08:47:03;;;;;;;4.30;1.23;;;;;;;24.20;40.73;100940.44;5054346;28;20501;-48
2022/05/22 08:49:39;;;;;;;5.65;1.40;;;;;;;24.22;41.06;100949.22;5055114;28;20545;-44
2022/05/22 08:52:41;;;;;;;5.32;1.38;;;;;;;24.21;41.38;100947.44;5054761;28;20025;-45
2022/05/22 08:55:11;;;;;;;3.17;1.30;;;;;;;24.21;40.61;100947.44;5055822;28;20025;-44
2022/05/22 09:00:47;;;;;;;4.93;1.23;;;;;;;24.37;40.76;100948.53;5046873;28;20048;-50
2022/05/22 09:03:24;;;;;;;7.22;1.27;;;;;;;24.37;40.89;100956.38;5055065;28;20025;-49
2022/05/22 09:05:57;;;;;;;5.38;1.45;;;;;;;24.38;41.11;100961.63;5054642;28;20029;-48
2022/05/22 09:08:31;;;;;;;7.85;1.70;;;;;;;24.50;40.60;100967.88;5055748;28;20032;-45
2022/05/22 09:11:09;;;;;;;3.65;1.17;;;;;;;24.45;40.90;100977.44;5055931;28;20032;-47
2022/05/22 09:13:41;;;;;;;4.97;1.55;;;;;;;24.45;41.03;100987.94;5055839;28;20079;-46
2022/05/22 09:16:13;;;;;;;6.45;1.85;;;;;;;24.35;41.67;100997.44;5054567;28;20410;-46
2022/05/22 09:18:56;;;;;;;6.85;1.67;;;;;;;24.37;41.05;100999.19;5056205;28;20032;-47
2022/05/22 09:21:47;;;;;;;6.20;1.65;;;;;;;24.37;41.27;101007.06;5055841;28;20155;-46
2022/05/22 09:24:34;;;;;;;8.73;1.52;;;;;;;24.41;40.81;101008.88;5051970;28;20033;-46
2022/05/22 09:27:18;;;;;;;3.92;1.30;;;;;;;24.46;41.22;101021.16;5054240;28;20552;-46
2022/05/22 09:30:17;;;;;;;5.38;1.55;;;;;;;24.43;41.25;101004.53;5054484;28;20028;-48
2022/05/22 09:33:04;;;;;;;3.83;1.20;;;;;;;24.51;40.97;101004.63;5055018;28;20398;-49
2022/05/22 09:36:00;;;;;;;7.13;1.55;;;;;;;24.64;40.47;101012.63;5047088;28;20087;-47
2022/05/22 09:38:54;;;;;;;5.82;1.73;;;;;;;24.53;41.14;101002.91;5055549;28;20036;-45
2022/05/22 09:41:46;;;;;;;4.35;1.23;;;;;;;24.55;41.28;101010.78;5051765;28;20474;-48
2022/05/22 09:44:28;;;;;;;7.38;1.88;;;;;;;24.47;41.78;100991.47;5051733;28;20070;-47
2022/05/22 09:47:01;;;;;;;6.18;1.63;;;;;;;24.52;41.04;100984.50;5053852;28;20470;-47
2022/05/22 09:49:52;;;;;;;8.88;1.73;;;;;;;24.54;41.55;100980.16;5053689;28;20075;-47
2022/05/22 09:52:36;;;;;;;5.95;1.60;;;;;;;24.55;41.77;100966.19;5047064;28;20040;-44
2022/05/22 09:55:24;;;;;;;4.53;1.30;;;;;;;24.61;41.50;100949.63;5054499;28;20032;-48
2022/05/22 09:58:08;;;;;;;6.20;1.30;;;;;;;24.61;41.20;100932.16;5052041;28;20083;-45
2022/05/22 10:01:00;;;;;;;8.80;1.85;;;;;;;24.68;41.40;100917.34;5055094;28;20029;-45
2022/05/22 10:03:50;;;;;;;4.75;1.50;;;;;;;24.78;41.31;100915.72;5050600;28;20044;-46
2022/05/22 10:06:39;;;;;;;3.95;1.27;;;;;;;24.86;41.65;100914.03;5051479;28;20037;-50
2022/05/22 10:09:20;;;;;;;4.65;1.25;;;;;;;24.82;40.92;100907.91;5053763;28;20417;-48
2022/05/22 10:12:01;;;;;;;5.30;1.48;;;;;;;24.97;41.04;100896.66;5053385;28;20035;-46
2022/05/22 10:15:07;;;;;;;3.90;1.35;;;;;;;25.01;40.84;100894.94;5054636;28;20060;-45
2022/05/22 10:17:55;;;;;;;2.28;0.90;;;;;;;24.99;41.21;100904.53;5054027;28;20402;-48
2022/05/22 10:20:43;;;;;;;4.72;1.75;;;;;;;25.02;40.77;100897.56;5054982;28;20112;-46
2022/05/22 10:23:30;;;;;;;6.47;1.70;;;;;;;25.05;41.21;100885.31;5048631;28;20041;-47
2022/05/22 10:25:59;;;;;;;4.32;1.33;;;;;;;25.13;41.12;100884.50;5050538;28;20036;-46
2022/05/22 10:28:33;;;;;;;4.50;1.38;;;;;;;25.21;40.62;100887.19;5053676;28;20386;-48
2022/05/22 10:31:09;;;;;;;7.80;1.85;;;;;;;25.27;41.26;100875.84;5053053;28;20147;-45
2022/05/22 10:33:44;;;;;;;5.65;1.75;;;;;;;25.31;40.53;100856.63;5053087;28;20029;-47
2022/05/22 10:36:14;;;;;;;6.57;1.52;;;;;;;25.36;40.61;100860.16;5054530;28;20394;-49
2022/05/22 10:38:54;;;;;;;4.65;1.50;;;;;;;25.36;40.34;100859.25;5054408;28;20463;-47
2022/05/22 10:44:20;;;;;;;5.78;1.75;;;;;;;25.32;40.87;100842.63;5049340;28;20124;-47
2022/05/22 10:46:51;;;;;;;3.75;1.67;;;;;;;25.33;40.36;100844.38;5052966;28;20115;-49
2022/05/22 10:49:21;;;;;;;3.45;1.20;;;;;;;25.39;41.00;100848.78;5054275;28;20532;-47
2022/05/22 10:52:01;;;;;;;5.22;1.45;;;;;;;25.39;40.81;100843.53;5052754;28;20025;-46
2022/05/22 10:54:33;;;;;;;6.32;1.50;;;;;;;25.52;40.09;100853.25;5053909;28;20052;-45
2022/05/22 10:57:22;;;;;;;3.30;1.50;;;;;;;25.51;40.23;100853.25;5054109;28;20439;-45
2022/05/22 10:59:52;;;;;;;4.25;1.20;;;;;;;25.42;40.31;100848.84;5053978;28;20036;-45
2022/05/22 11:02:25;;;;;;;3.22;1.33;;;;;;;25.46;40.64;100858.50;5036297;28;20025;-45
2022/05/22 11:04:55;;;;;;;3.83;1.40;;;;;;;25.39;40.79;100852.31;5052916;28;20033;-45
2022/05/22 11:07:44;;;;;;;3.28;1.00;;;;;;;25.44;40.15;100847.97;5053636;28;20029;-44
2022/05/22 11:10:17;;;;;;;4.97;1.33;;;;;;;25.47;40.40;100840.09;5053793;28;20055;-48
2022/05/22 11:13:00;;;;;;;3.45;1.35;;;;;;;25.41;41.11;100812.91;5053781;28;20082;-47
2022/05/22 11:15:32;;;;;;;5.78;1.80;;;;;;;25.60;41.00;100829.63;5053688;28;20475;-47
2022/05/22 11:18:10;;;;;;;3.13;1.23;;;;;;;25.61;40.34;100828.78;5069210;28;20059;-45
2022/05/22 11:20:59;;;;;;;5.13;1.25;;;;;;;25.73;39.77;100827.94;5053849;28;20028;-45
2022/05/22 11:23:29;;;;;;;5.13;1.70;;;;;;;25.68;40.58;100830.56;5044762;28;20498;-45
2022/05/22 11:26:17;;;;;;;4.28;1.77;;;;;;;25.72;40.79;100826.19;5053376;28;20049;-45
2022/05/22 11:28:52;;;;;;;2.65;1.23;;;;;;;25.74;40.65;100821.81;5046898;28;20051;-45
2022/05/22 11:31:43;;;;;;;6.38;1.65;;;;;;;25.81;40.13;100813.09;5053263;28;20435;-45
2022/05/22 11:34:39;;;;;;;4.60;1.70;;;;;;;25.79;40.32;100806.97;5053349;28;20095;-46
2022/05/22 11:37:27;;;;;;;4.70;1.77;;;;;;;25.86;40.26;100824.47;5053761;28;20510;-45
2022/05/22 11:40:17;;;;;;;4.82;1.45;;;;;;;25.87;40.32;100831.50;5050060;28;20178;-44
2022/05/22 11:42:46;;;;;;;3.75;1.60;;;;;;;25.88;40.03;100833.25;5035535;28;20394;-45
2022/05/22 11:45:22;;;;;;;4.65;1.48;;;;;;;25.92;40.22;100834.13;5035483;28;20028;-45
2022/05/22 11:48:13;;;;;;;3.88;1.73;;;;;;;25.94;40.17;100835.00;5053433;28;20032;-45
2022/05/22 11:51:00;;;;;;;4.10;1.58;;;;;;;26.05;40.43;100843.81;5050313;28;20497;-45
2022/05/22 11:54:07;;;;;;;4.50;1.70;;;;;;;26.05;40.18;100842.94;5042996;28;20041;-46
2022/05/22 11:57:13;;;;;;;7.00;1.90;;;;;;;26.10;39.69;100833.31;5053163;28;20024;-45
2022/05/22 12:00:04;;;;;;;4.60;1.70;;;;;;;26.14;39.67;100835.09;5052607;28;20037;-46